sensor_id;sensor_type;location;lat;lon;timestamp;temperature;humidity
25024;DHT22;13033;50.936;5.334;2023-05-01T00:02:01;15.30;99.90
25024;DHT22;13033;50.936;5.334;2023-05-01T00:04:27;15.10;1.00
25024;DHT22;13033;50.936;5.334;2023-05-01T00:06:52;15.00;1.00
25024;DHT22;13033;50.936;5.334;2023-05-01T00:09:18;14.90;99.90
25024;DHT22;13033;50.936;5.334;2023-05-01T00:11:44;14.90;99.90
25024;DHT22;13033;50.936;5.334;2023-05-01T00:14:11;15.00;99.90
25024;DHT22;13033;50.936;5.334;2023-05-01T00:16:36;15.00;99.90
25024;DHT22;13033;50.936;5.334;2023-05-01T00:19:02;14.90;99.90
25024;DHT22;13033;50.936;5.334;2023-05-01T00:21:29;14.90;99.90
25024;DHT22;13033;50.936;5.334;2023-05-01T00:23:55;14.90;99.90
25024;DHT22;13033;50.936;5.334;2023-05-01T00:26:21;15.10;1.00
25024;DHT22;13033;50.936;5.334;2023-05-01T00:28:47;15.20;1.00
25024;DHT22;13033;50.936;5.334;2023-05-01T00:31:12;15.00;1.00
25024;DHT22;13033;50.936;5.334;2023-05-01T00:33:38;15.00;1.00
25024;DHT22;13033;50.936;5.334;2023-05-01T00:36:05;15.10;1.00
25024;DHT22;13033;50.936;5.334;2023-05-01T00:38:30;15.10;1.00
25024;DHT22;13033;50.936;5.334;2023-05-01T00:40:56;14.90;99.90
25024;DHT22;13033;50.936;5.334;2023-05-01T00:43:22;14.90;99.90
25024;DHT22;13033;50.936;5.334;2023-05-01T00:45:47;14.90;99.90
25024;DHT22;13033;50.936;5.334;2023-05-01T00:48:14;15.00;99.90
25024;DHT22;13033;50.936;5.334;2023-05-01T00:50:40;14.90;99.90
25024;DHT22;13033;50.936;5.334;2023-05-01T00:53:06;14.90;1.00
25024;DHT22;13033;50.936;5.334;2023-05-01T00:55:32;14.90;1.00
25024;DHT22;13033;50.936;5.334;2023-05-01T00:57:59;15.00;99.90
25024;DHT22;13033;50.936;5.334;2023-05-01T01:00:25;15.10;99.90
25024;DHT22;13033;50.936;5.334;2023-05-01T01:02:51;15.20;91.20
25024;DHT22;13033;50.936;5.334;2023-05-01T01:05:18;15.00;99.90
25024;DHT22;13033;50.936;5.334;2023-05-01T01:07:57;14.90;99.90
25024;DHT22;13033;50.936;5.334;2023-05-01T01:13:23;14.60;99.90
25024;DHT22;13033;50.936;5.334;2023-05-01T01:15:58;14.70;99.90
25024;DHT22;13033;50.936;5.334;2023-05-01T01:18:58;14.80;99.90
25024;DHT22;13033;50.936;5.334;2023-05-01T01:24:20;14.50;1.00
25024;DHT22;13033;50.936;5.334;2023-05-01T01:30:13;14.60;1.00
25024;DHT22;13033;50.936;5.334;2023-05-01T01:35:37;14.50;1.00
25024;DHT22;13033;50.936;5.334;2023-05-01T01:38:15;14.40;1.00
25024;DHT22;13033;50.936;5.334;2023-05-01T01:40:58;14.50;1.00
25024;DHT22;13033;50.936;5.334;2023-05-01T01:43:27;14.40;1.00
25024;DHT22;13033;50.936;5.334;2023-05-01T01:46:01;14.30;99.90
25024;DHT22;13033;50.936;5.334;2023-05-01T01:48:32;14.30;99.90
25024;DHT22;13033;50.936;5.334;2023-05-01T01:51:00;14.30;99.90
25024;DHT22;13033;50.936;5.334;2023-05-01T01:53:30;14.30;99.90
25024;DHT22;13033;50.936;5.334;2023-05-01T01:55:58;14.30;99.90
25024;DHT22;13033;50.936;5.334;2023-05-01T01:58:27;14.40;99.90
25024;DHT22;13033;50.936;5.334;2023-05-01T02:00:54;14.30;99.90
25024;DHT22;13033;50.936;5.334;2023-05-01T02:03:22;14.30;99.90
25024;DHT22;13033;50.936;5.334;2023-05-01T02:05:48;14.20;99.90
25024;DHT22;13033;50.936;5.334;2023-05-01T02:08:15;14.30;99.90
25024;DHT22;13033;50.936;5.334;2023-05-01T02:10:42;14.30;99.90
25024;DHT22;13033;50.936;5.334;2023-05-01T02:13:10;14.10;99.90
25024;DHT22;13033;50.936;5.334;2023-05-01T02:15:39;14.30;99.90
25024;DHT22;13033;50.936;5.334;2023-05-01T02:18:05;14.30;99.90
25024;DHT22;13033;50.936;5.334;2023-05-01T02:20:32;14.20;99.90
25024;DHT22;13033;50.936;5.334;2023-05-01T02:22:58;14.20;99.90
25024;DHT22;13033;50.936;5.334;2023-05-01T02:25:26;14.10;99.90
25024;DHT22;13033;50.936;5.334;2023-05-01T02:27:55;14.10;99.90
25024;DHT22;13033;50.936;5.334;2023-05-01T02:30:22;14.10;99.90
25024;DHT22;13033;50.936;5.334;2023-05-01T02:32:47;14.20;99.90
25024;DHT22;13033;50.936;5.334;2023-05-01T02:35:13;14.20;99.90
25024;DHT22;13033;50.936;5.334;2023-05-01T02:37:39;14.40;99.90
25024;DHT22;13033;50.936;5.334;2023-05-01T02:40:05;14.30;99.90
25024;DHT22;13033;50.936;5.334;2023-05-01T02:42:32;14.30;99.90
25024;DHT22;13033;50.936;5.334;2023-05-01T02:45:02;14.40;99.90
25024;DHT22;13033;50.936;5.334;2023-05-01T02:47:32;14.40;99.90
25024;DHT22;13033;50.936;5.334;2023-05-01T02:49:59;14.30;99.90
25024;DHT22;13033;50.936;5.334;2023-05-01T02:52:26;14.40;99.90
25024;DHT22;13033;50.936;5.334;2023-05-01T02:54:52;14.50;99.90
25024;DHT22;13033;50.936;5.334;2023-05-01T02:57:17;14.40;99.90
25024;DHT22;13033;50.936;5.334;2023-05-01T02:59:44;14.20;99.90
25024;DHT22;13033;50.936;5.334;2023-05-01T03:02:10;14.30;99.90
25024;DHT22;13033;50.936;5.334;2023-05-01T03:04:36;14.40;99.90
25024;DHT22;13033;50.936;5.334;2023-05-01T03:07:02;14.50;99.90
25024;DHT22;13033;50.936;5.334;2023-05-01T03:09:29;14.70;99.90
25024;DHT22;13033;50.936;5.334;2023-05-01T03:11:56;14.80;99.90
25024;DHT22;13033;50.936;5.334;2023-05-01T03:14:21;14.80;99.90
25024;DHT22;13033;50.936;5.334;2023-05-01T03:16:48;14.80;99.90
25024;DHT22;13033;50.936;5.334;2023-05-01T03:19:13;14.70;99.90
25024;DHT22;13033;50.936;5.334;2023-05-01T03:21:39;14.60;99.90
25024;DHT22;13033;50.936;5.334;2023-05-01T03:24:05;14.50;99.90
25024;DHT22;13033;50.936;5.334;2023-05-01T03:26:31;14.40;99.90
25024;DHT22;13033;50.936;5.334;2023-05-01T03:28:57;14.40;99.90
25024;DHT22;13033;50.936;5.334;2023-05-01T03:31:23;14.50;99.90
25024;DHT22;13033;50.936;5.334;2023-05-01T03:33:48;14.50;99.90
25024;DHT22;13033;50.936;5.334;2023-05-01T03:36:14;14.50;99.90
25024;DHT22;13033;50.936;5.334;2023-05-01T03:38:41;14.60;99.90
25024;DHT22;13033;50.936;5.334;2023-05-01T03:41:07;14.50;99.90
25024;DHT22;13033;50.936;5.334;2023-05-01T03:43:33;14.40;99.90
25024;DHT22;13033;50.936;5.334;2023-05-01T03:45:59;14.40;99.90
25024;DHT22;13033;50.936;5.334;2023-05-01T03:48:24;14.30;99.90
25024;DHT22;13033;50.936;5.334;2023-05-01T03:50:50;14.40;99.90
25024;DHT22;13033;50.936;5.334;2023-05-01T03:53:16;14.20;1.00
25024;DHT22;13033;50.936;5.334;2023-05-01T03:55:42;14.30;99.90
25024;DHT22;13033;50.936;5.334;2023-05-01T03:58:08;14.10;1.00
25024;DHT22;13033;50.936;5.334;2023-05-01T04:00:35;14.20;1.00
25024;DHT22;13033;50.936;5.334;2023-05-01T04:03:02;14.30;1.00
25024;DHT22;13033;50.936;5.334;2023-05-01T04:05:27;14.30;1.00
25024;DHT22;13033;50.936;5.334;2023-05-01T04:07:53;14.30;1.00
25024;DHT22;13033;50.936;5.334;2023-05-01T04:10:19;14.20;1.00
25024;DHT22;13033;50.936;5.334;2023-05-01T04:12:44;14.30;1.00
25024;DHT22;13033;50.936;5.334;2023-05-01T04:15:10;14.10;1.00
25024;DHT22;13033;50.936;5.334;2023-05-01T04:17:36;14.00;1.00
25024;DHT22;13033;50.936;5.334;2023-05-01T04:20:02;13.90;1.00
25024;DHT22;13033;50.936;5.334;2023-05-01T04:22:30;14.00;1.00
25024;DHT22;13033;50.936;5.334;2023-05-01T04:24:56;13.90;1.00
25024;DHT22;13033;50.936;5.334;2023-05-01T04:27:22;14.10;1.00
25024;DHT22;13033;50.936;5.334;2023-05-01T04:29:47;14.00;1.00
25024;DHT22;13033;50.936;5.334;2023-05-01T04:32:13;14.10;1.00
25024;DHT22;13033;50.936;5.334;2023-05-01T04:34:39;14.10;1.00
25024;DHT22;13033;50.936;5.334;2023-05-01T04:37:04;14.10;1.00
25024;DHT22;13033;50.936;5.334;2023-05-01T04:39:32;14.00;1.00
25024;DHT22;13033;50.936;5.334;2023-05-01T04:41:57;14.10;1.00
25024;DHT22;13033;50.936;5.334;2023-05-01T04:44:23;14.10;1.00
25024;DHT22;13033;50.936;5.334;2023-05-01T04:46:49;14.20;1.00
25024;DHT22;13033;50.936;5.334;2023-05-01T04:49:14;14.30;1.00
25024;DHT22;13033;50.936;5.334;2023-05-01T04:51:40;14.40;1.00
25024;DHT22;13033;50.936;5.334;2023-05-01T04:54:06;14.40;1.00
25024;DHT22;13033;50.936;5.334;2023-05-01T04:56:31;14.40;1.00
25024;DHT22;13033;50.936;5.334;2023-05-01T04:58:57;14.30;1.00
25024;DHT22;13033;50.936;5.334;2023-05-01T05:01:23;14.30;1.00
25024;DHT22;13033;50.936;5.334;2023-05-01T05:03:49;14.40;1.00
25024;DHT22;13033;50.936;5.334;2023-05-01T05:06:14;14.20;1.00
25024;DHT22;13033;50.936;5.334;2023-05-01T05:08:40;14.30;1.00
25024;DHT22;13033;50.936;5.334;2023-05-01T05:11:06;14.40;1.00
25024;DHT22;13033;50.936;5.334;2023-05-01T05:13:32;14.30;1.00
25024;DHT22;13033;50.936;5.334;2023-05-01T05:15:57;14.20;1.00
25024;DHT22;13033;50.936;5.334;2023-05-01T05:18:23;14.30;1.00
25024;DHT22;13033;50.936;5.334;2023-05-01T05:20:48;14.10;1.00
25024;DHT22;13033;50.936;5.334;2023-05-01T05:23:14;14.10;1.00
25024;DHT22;13033;50.936;5.334;2023-05-01T05:25:40;14.10;1.00
25024;DHT22;13033;50.936;5.334;2023-05-01T05:28:05;14.10;1.00
25024;DHT22;13033;50.936;5.334;2023-05-01T05:30:31;14.30;1.00
25024;DHT22;13033;50.936;5.334;2023-05-01T05:32:57;14.50;1.00
25024;DHT22;13033;50.936;5.334;2023-05-01T05:35:22;14.50;1.00
25024;DHT22;13033;50.936;5.334;2023-05-01T05:37:48;14.60;1.00
25024;DHT22;13033;50.936;5.334;2023-05-01T05:40:14;14.70;1.00
25024;DHT22;13033;50.936;5.334;2023-05-01T05:42:40;14.70;1.00
25024;DHT22;13033;50.936;5.334;2023-05-01T05:45:06;14.80;1.00
25024;DHT22;13033;50.936;5.334;2023-05-01T05:47:32;14.80;1.00
25024;DHT22;13033;50.936;5.334;2023-05-01T05:49:57;14.60;1.00
25024;DHT22;13033;50.936;5.334;2023-05-01T05:52:23;14.80;1.00
25024;DHT22;13033;50.936;5.334;2023-05-01T05:54:48;14.90;1.00
25024;DHT22;13033;50.936;5.334;2023-05-01T05:57:14;14.80;1.00
25024;DHT22;13033;50.936;5.334;2023-05-01T05:59:40;14.70;1.00
25024;DHT22;13033;50.936;5.334;2023-05-01T06:02:06;14.50;1.00
25024;DHT22;13033;50.936;5.334;2023-05-01T06:04:32;14.60;1.00
25024;DHT22;13033;50.936;5.334;2023-05-01T06:06:58;14.80;1.00
25024;DHT22;13033;50.936;5.334;2023-05-01T06:09:24;14.90;1.00
25024;DHT22;13033;50.936;5.334;2023-05-01T06:11:50;14.90;1.00
25024;DHT22;13033;50.936;5.334;2023-05-01T06:14:16;14.80;1.00
25024;DHT22;13033;50.936;5.334;2023-05-01T06:16:42;14.70;1.00
25024;DHT22;13033;50.936;5.334;2023-05-01T06:19:07;14.80;1.00
25024;DHT22;13033;50.936;5.334;2023-05-01T06:21:35;14.80;1.00
25024;DHT22;13033;50.936;5.334;2023-05-01T06:24:00;14.90;1.00
25024;DHT22;13033;50.936;5.334;2023-05-01T06:26:26;14.90;1.00
25024;DHT22;13033;50.936;5.334;2023-05-01T06:28:52;15.10;1.00
25024;DHT22;13033;50.936;5.334;2023-05-01T06:31:19;15.20;1.00
25024;DHT22;13033;50.936;5.334;2023-05-01T06:33:45;15.40;1.00
25024;DHT22;13033;50.936;5.334;2023-05-01T06:36:10;15.50;99.90
25024;DHT22;13033;50.936;5.334;2023-05-01T06:38:36;15.40;99.90
25024;DHT22;13033;50.936;5.334;2023-05-01T06:41:03;15.50;99.90
25024;DHT22;13033;50.936;5.334;2023-05-01T06:43:29;15.50;99.90
25024;DHT22;13033;50.936;5.334;2023-05-01T06:45:58;15.40;99.90
25024;DHT22;13033;50.936;5.334;2023-05-01T06:48:24;15.30;99.90
25024;DHT22;13033;50.936;5.334;2023-05-01T06:50:49;15.40;99.90
25024;DHT22;13033;50.936;5.334;2023-05-01T06:53:15;15.50;99.90
25024;DHT22;13033;50.936;5.334;2023-05-01T06:55:41;15.50;99.90
25024;DHT22;13033;50.936;5.334;2023-05-01T06:58:06;15.60;99.90
25024;DHT22;13033;50.936;5.334;2023-05-01T07:00:36;15.60;99.90
25024;DHT22;13033;50.936;5.334;2023-05-01T07:03:01;15.70;99.90
25024;DHT22;13033;50.936;5.334;2023-05-01T07:05:28;15.90;99.90
25024;DHT22;13033;50.936;5.334;2023-05-01T07:07:54;16.20;99.90
25024;DHT22;13033;50.936;5.334;2023-05-01T07:10:20;15.90;99.90
25024;DHT22;13033;50.936;5.334;2023-05-01T07:12:46;15.90;99.90
25024;DHT22;13033;50.936;5.334;2023-05-01T07:15:11;15.80;99.90
25024;DHT22;13033;50.936;5.334;2023-05-01T07:17:39;15.80;99.90
25024;DHT22;13033;50.936;5.334;2023-05-01T07:20:05;15.90;99.90
25024;DHT22;13033;50.936;5.334;2023-05-01T07:22:31;16.20;99.90
25024;DHT22;13033;50.936;5.334;2023-05-01T07:24:57;16.30;99.90
25024;DHT22;13033;50.936;5.334;2023-05-01T07:27:22;16.40;99.90
25024;DHT22;13033;50.936;5.334;2023-05-01T07:29:49;16.50;99.90
25024;DHT22;13033;50.936;5.334;2023-05-01T07:32:15;16.50;99.90
25024;DHT22;13033;50.936;5.334;2023-05-01T07:34:40;16.70;99.90
25024;DHT22;13033;50.936;5.334;2023-05-01T07:37:06;17.00;99.90
25024;DHT22;13033;50.936;5.334;2023-05-01T07:39:32;16.70;99.90
25024;DHT22;13033;50.936;5.334;2023-05-01T07:41:57;16.60;99.90
25024;DHT22;13033;50.936;5.334;2023-05-01T07:44:23;16.40;99.90
25024;DHT22;13033;50.936;5.334;2023-05-01T07:46:49;16.60;99.90
25024;DHT22;13033;50.936;5.334;2023-05-01T07:49:14;16.60;99.90
25024;DHT22;13033;50.936;5.334;2023-05-01T07:51:41;16.70;99.90
25024;DHT22;13033;50.936;5.334;2023-05-01T07:54:07;16.80;99.90
25024;DHT22;13033;50.936;5.334;2023-05-01T07:56:33;17.00;99.90
25024;DHT22;13033;50.936;5.334;2023-05-01T07:58:58;16.90;99.90
25024;DHT22;13033;50.936;5.334;2023-05-01T08:01:29;17.00;99.90
25024;DHT22;13033;50.936;5.334;2023-05-01T08:03:55;17.00;99.90
25024;DHT22;13033;50.936;5.334;2023-05-01T08:06:20;17.30;37.70
25024;DHT22;13033;50.936;5.334;2023-05-01T08:08:46;17.40;1.00
25024;DHT22;13033;50.936;5.334;2023-05-01T08:11:11;17.40;1.00
25024;DHT22;13033;50.936;5.334;2023-05-01T08:13:37;17.30;1.00
25024;DHT22;13033;50.936;5.334;2023-05-01T08:16:03;17.30;1.00
25024;DHT22;13033;50.936;5.334;2023-05-01T08:18:30;17.70;1.00
25024;DHT22;13033;50.936;5.334;2023-05-01T08:20:55;18.00;1.00
25024;DHT22;13033;50.936;5.334;2023-05-01T08:23:21;17.90;1.00
25024;DHT22;13033;50.936;5.334;2023-05-01T08:25:50;17.90;1.00
25024;DHT22;13033;50.936;5.334;2023-05-01T08:28:17;17.70;1.00
25024;DHT22;13033;50.936;5.334;2023-05-01T08:30:45;17.50;1.00
25024;DHT22;13033;50.936;5.334;2023-05-01T08:33:10;17.60;1.00
25024;DHT22;13033;50.936;5.334;2023-05-01T08:35:36;17.70;1.00
25024;DHT22;13033;50.936;5.334;2023-05-01T08:38:02;17.60;1.00
25024;DHT22;13033;50.936;5.334;2023-05-01T08:40:31;17.80;1.00
25024;DHT22;13033;50.936;5.334;2023-05-01T08:42:59;17.90;1.00
25024;DHT22;13033;50.936;5.334;2023-05-01T08:45:26;17.90;1.00
25024;DHT22;13033;50.936;5.334;2023-05-01T08:47:53;17.70;1.00
25024;DHT22;13033;50.936;5.334;2023-05-01T08:50:20;17.60;1.00
25024;DHT22;13033;50.936;5.334;2023-05-01T08:52:50;18.00;1.00
25024;DHT22;13033;50.936;5.334;2023-05-01T08:55:15;18.40;1.00
25024;DHT22;13033;50.936;5.334;2023-05-01T08:57:46;18.60;99.90
25024;DHT22;13033;50.936;5.334;2023-05-01T09:00:19;18.70;99.90
25024;DHT22;13033;50.936;5.334;2023-05-01T09:02:47;18.80;1.00
25024;DHT22;13033;50.936;5.334;2023-05-01T09:05:18;18.60;3.90
25024;DHT22;13033;50.936;5.334;2023-05-01T09:07:44;18.50;1.00
25024;DHT22;13033;50.936;5.334;2023-05-01T09:10:12;18.40;7.20
25024;DHT22;13033;50.936;5.334;2023-05-01T09:12:39;18.60;1.00
25024;DHT22;13033;50.936;5.334;2023-05-01T09:15:06;18.60;1.00
25024;DHT22;13033;50.936;5.334;2023-05-01T09:17:33;18.60;1.00
25024;DHT22;13033;50.936;5.334;2023-05-01T09:20:01;18.50;1.00
25024;DHT22;13033;50.936;5.334;2023-05-01T09:22:31;18.50;1.00
25024;DHT22;13033;50.936;5.334;2023-05-01T09:24:57;18.60;1.00
25024;DHT22;13033;50.936;5.334;2023-05-01T09:27:25;18.60;1.00
25024;DHT22;13033;50.936;5.334;2023-05-01T09:29:51;18.70;1.00
25024;DHT22;13033;50.936;5.334;2023-05-01T09:32:25;18.90;1.00
25024;DHT22;13033;50.936;5.334;2023-05-01T09:34:54;18.90;99.90
25024;DHT22;13033;50.936;5.334;2023-05-01T09:37:28;19.10;99.90
25024;DHT22;13033;50.936;5.334;2023-05-01T09:42:37;18.80;1.00
25024;DHT22;13033;50.936;5.334;2023-05-01T09:45:11;18.90;99.90
25024;DHT22;13033;50.936;5.334;2023-05-01T09:47:38;18.90;99.90
25024;DHT22;13033;50.936;5.334;2023-05-01T09:50:04;19.00;1.00
25024;DHT22;13033;50.936;5.334;2023-05-01T09:52:31;19.10;1.00
25024;DHT22;13033;50.936;5.334;2023-05-01T09:55:17;19.20;1.00
25024;DHT22;13033;50.936;5.334;2023-05-01T09:57:44;19.30;1.00
25024;DHT22;13033;50.936;5.334;2023-05-01T10:00:11;19.40;99.90
25024;DHT22;13033;50.936;5.334;2023-05-01T10:02:39;19.30;99.90
25024;DHT22;13033;50.936;5.334;2023-05-01T10:05:05;19.30;1.00
25024;DHT22;13033;50.936;5.334;2023-05-01T10:07:32;19.50;1.00
25024;DHT22;13033;50.936;5.334;2023-05-01T10:09:58;19.70;99.90
25024;DHT22;13033;50.936;5.334;2023-05-01T10:12:27;19.80;1.00
25024;DHT22;13033;50.936;5.334;2023-05-01T10:14:57;19.90;99.90
25024;DHT22;13033;50.936;5.334;2023-05-01T10:17:22;20.20;99.90
25024;DHT22;13033;50.936;5.334;2023-05-01T10:19:48;20.50;1.00
25024;DHT22;13033;50.936;5.334;2023-05-01T10:22:16;20.80;99.90
25024;DHT22;13033;50.936;5.334;2023-05-01T10:24:45;20.70;99.90
25024;DHT22;13033;50.936;5.334;2023-05-01T10:27:11;20.60;99.90
25024;DHT22;13033;50.936;5.334;2023-05-01T10:29:39;20.60;1.00
25024;DHT22;13033;50.936;5.334;2023-05-01T10:32:06;20.70;99.90
25024;DHT22;13033;50.936;5.334;2023-05-01T10:34:42;20.90;99.90
25024;DHT22;13033;50.936;5.334;2023-05-01T10:37:23;20.80;99.90
25024;DHT22;13033;50.936;5.334;2023-05-01T10:39:49;20.50;99.90
25024;DHT22;13033;50.936;5.334;2023-05-01T10:42:14;20.40;99.90
25024;DHT22;13033;50.936;5.334;2023-05-01T10:44:42;21.00;99.90
25024;DHT22;13033;50.936;5.334;2023-05-01T10:55:38;21.20;99.90
25024;DHT22;13033;50.936;5.334;2023-05-01T10:58:03;21.10;99.90
25024;DHT22;13033;50.936;5.334;2023-05-01T11:00:30;20.80;99.90
25024;DHT22;13033;50.936;5.334;2023-05-01T11:08:31;20.80;99.90
25024;DHT22;13033;50.936;5.334;2023-05-01T11:11:43;20.40;1.00
25024;DHT22;13033;50.936;5.334;2023-05-01T11:14:06;20.20;1.00
25024;DHT22;13033;50.936;5.334;2023-05-01T11:16:39;20.10;1.00
25024;DHT22;13033;50.936;5.334;2023-05-01T11:21:45;20.30;1.00
25024;DHT22;13033;50.936;5.334;2023-05-01T11:24:11;20.40;99.90
25024;DHT22;13033;50.936;5.334;2023-05-01T11:26:41;20.30;1.00
25024;DHT22;13033;50.936;5.334;2023-05-01T11:29:08;20.40;1.00
25024;DHT22;13033;50.936;5.334;2023-05-01T11:31:38;20.50;1.00
25024;DHT22;13033;50.936;5.334;2023-05-01T11:34:04;20.40;1.00
25024;DHT22;13033;50.936;5.334;2023-05-01T11:36:49;20.30;1.00
25024;DHT22;13033;50.936;5.334;2023-05-01T11:39:15;20.00;1.00
25024;DHT22;13033;50.936;5.334;2023-05-01T11:41:42;19.80;96.10
25024;DHT22;13033;50.936;5.334;2023-05-01T11:44:10;19.80;99.90
25024;DHT22;13033;50.936;5.334;2023-05-01T11:46:36;19.80;99.90
25024;DHT22;13033;50.936;5.334;2023-05-01T11:49:02;19.80;99.90
25024;DHT22;13033;50.936;5.334;2023-05-01T11:51:29;19.70;99.90
25024;DHT22;13033;50.936;5.334;2023-05-01T11:54:09;19.70;99.90
25024;DHT22;13033;50.936;5.334;2023-05-01T11:56:36;19.50;99.90
25024;DHT22;13033;50.936;5.334;2023-05-01T11:59:13;19.40;99.90
25024;DHT22;13033;50.936;5.334;2023-05-01T12:01:42;19.50;99.90
25024;DHT22;13033;50.936;5.334;2023-05-01T12:04:09;19.40;99.90
25024;DHT22;13033;50.936;5.334;2023-05-01T12:06:45;19.30;99.90
25024;DHT22;13033;50.936;5.334;2023-05-01T12:09:22;19.30;99.90
25024;DHT22;13033;50.936;5.334;2023-05-01T12:11:50;19.40;99.90
25024;DHT22;13033;50.936;5.334;2023-05-01T12:14:16;19.70;99.90
25024;DHT22;13033;50.936;5.334;2023-05-01T12:16:43;19.60;99.90
25024;DHT22;13033;50.936;5.334;2023-05-01T12:19:12;19.60;1.00
25024;DHT22;13033;50.936;5.334;2023-05-01T12:21:38;19.70;99.90
25024;DHT22;13033;50.936;5.334;2023-05-01T12:24:21;19.90;99.90
25024;DHT22;13033;50.936;5.334;2023-05-01T12:26:59;20.10;99.90
25024;DHT22;13033;50.936;5.334;2023-05-01T12:29:25;20.00;99.90
25024;DHT22;13033;50.936;5.334;2023-05-01T12:31:51;19.80;99.90
25024;DHT22;13033;50.936;5.334;2023-05-01T12:34:17;19.80;99.90
25024;DHT22;13033;50.936;5.334;2023-05-01T12:36:52;20.00;99.90
25024;DHT22;13033;50.936;5.334;2023-05-01T12:39:19;20.10;99.90
25024;DHT22;13033;50.936;5.334;2023-05-01T12:41:47;20.60;99.90
25024;DHT22;13033;50.936;5.334;2023-05-01T12:44:23;20.90;1.00
25024;DHT22;13033;50.936;5.334;2023-05-01T12:47:15;21.10;1.00
25024;DHT22;13033;50.936;5.334;2023-05-01T12:49:41;21.00;1.00
25024;DHT22;13033;50.936;5.334;2023-05-01T12:52:07;20.90;1.00
25024;DHT22;13033;50.936;5.334;2023-05-01T12:54:36;20.90;1.00
25024;DHT22;13033;50.936;5.334;2023-05-01T12:57:06;20.90;1.00
25024;DHT22;13033;50.936;5.334;2023-05-01T12:59:33;20.90;1.00
25024;DHT22;13033;50.936;5.334;2023-05-01T13:02:07;20.80;1.00
25024;DHT22;13033;50.936;5.334;2023-05-01T13:04:35;20.30;99.90
25024;DHT22;13033;50.936;5.334;2023-05-01T13:07:01;20.00;99.90
25024;DHT22;13033;50.936;5.334;2023-05-01T13:09:35;20.20;99.90
25024;DHT22;13033;50.936;5.334;2023-05-01T13:12:02;20.60;16.70
25024;DHT22;13033;50.936;5.334;2023-05-01T13:14:35;20.80;1.00
25024;DHT22;13033;50.936;5.334;2023-05-01T13:17:02;20.90;99.90
25024;DHT22;13033;50.936;5.334;2023-05-01T13:19:29;21.10;99.90
25024;DHT22;13033;50.936;5.334;2023-05-01T13:21:56;21.40;99.90
25024;DHT22;13033;50.936;5.334;2023-05-01T13:24:38;21.10;1.00
25024;DHT22;13033;50.936;5.334;2023-05-01T13:27:04;20.70;1.00
25024;DHT22;13033;50.936;5.334;2023-05-01T13:29:31;20.20;60.00
25024;DHT22;13033;50.936;5.334;2023-05-01T13:31:57;20.00;99.90
25024;DHT22;13033;50.936;5.334;2023-05-01T13:34:30;20.00;99.90
25024;DHT22;13033;50.936;5.334;2023-05-01T13:36:56;20.30;99.90
25024;DHT22;13033;50.936;5.334;2023-05-01T13:39:23;20.40;99.90
25024;DHT22;13033;50.936;5.334;2023-05-01T13:41:50;20.10;99.90
25024;DHT22;13033;50.936;5.334;2023-05-01T13:44:17;20.10;99.90
25024;DHT22;13033;50.936;5.334;2023-05-01T13:46:43;20.10;99.90
25024;DHT22;13033;50.936;5.334;2023-05-01T13:49:09;20.20;99.90
25024;DHT22;13033;50.936;5.334;2023-05-01T13:51:38;20.30;99.90
25024;DHT22;13033;50.936;5.334;2023-05-01T13:54:10;20.50;1.00
25024;DHT22;13033;50.936;5.334;2023-05-01T13:56:37;20.40;1.00
25024;DHT22;13033;50.936;5.334;2023-05-01T13:59:07;20.50;1.00
25024;DHT22;13033;50.936;5.334;2023-05-01T14:01:42;20.60;1.00
25024;DHT22;13033;50.936;5.334;2023-05-01T14:04:14;20.60;1.00
25024;DHT22;13033;50.936;5.334;2023-05-01T14:06:43;20.60;1.00
25024;DHT22;13033;50.936;5.334;2023-05-01T14:09:10;20.70;1.00
25024;DHT22;13033;50.936;5.334;2023-05-01T14:11:47;20.50;1.00
25024;DHT22;13033;50.936;5.334;2023-05-01T14:14:15;20.60;1.00
25024;DHT22;13033;50.936;5.334;2023-05-01T14:16:41;20.50;1.00
25024;DHT22;13033;50.936;5.334;2023-05-01T14:19:14;20.60;1.00
25024;DHT22;13033;50.936;5.334;2023-05-01T14:21:40;20.70;1.00
25024;DHT22;13033;50.936;5.334;2023-05-01T14:24:08;20.60;1.00
25024;DHT22;13033;50.936;5.334;2023-05-01T14:26:38;20.60;1.00
25024;DHT22;13033;50.936;5.334;2023-05-01T14:29:04;20.60;1.00
25024;DHT22;13033;50.936;5.334;2023-05-01T14:31:32;20.60;1.00
25024;DHT22;13033;50.936;5.334;2023-05-01T14:33:59;20.10;1.00
25024;DHT22;13033;50.936;5.334;2023-05-01T14:36:26;19.80;82.70
25024;DHT22;13033;50.936;5.334;2023-05-01T14:39:01;19.60;99.90
25024;DHT22;13033;50.936;5.334;2023-05-01T14:41:27;19.50;99.90
25024;DHT22;13033;50.936;5.334;2023-05-01T14:43:53;19.30;99.90
25024;DHT22;13033;50.936;5.334;2023-05-01T14:46:30;19.20;99.90
25024;DHT22;13033;50.936;5.334;2023-05-01T14:48:56;19.10;1.00
25024;DHT22;13033;50.936;5.334;2023-05-01T14:51:22;18.90;1.00
25024;DHT22;13033;50.936;5.334;2023-05-01T14:53:48;18.70;99.90
25024;DHT22;13033;50.936;5.334;2023-05-01T14:56:13;18.70;1.00
25024;DHT22;13033;50.936;5.334;2023-05-01T14:58:39;18.40;90.60
25024;DHT22;13033;50.936;5.334;2023-05-01T15:01:05;18.10;99.90
25024;DHT22;13033;50.936;5.334;2023-05-01T15:03:33;17.90;1.00
25024;DHT22;13033;50.936;5.334;2023-05-01T15:06:00;17.80;99.90
25024;DHT22;13033;50.936;5.334;2023-05-01T15:08:26;17.60;1.00
25024;DHT22;13033;50.936;5.334;2023-05-01T15:10:52;17.50;99.90
25024;DHT22;13033;50.936;5.334;2023-05-01T15:13:17;17.40;1.00
25024;DHT22;13033;50.936;5.334;2023-05-01T15:15:44;17.30;1.00
25024;DHT22;13033;50.936;5.334;2023-05-01T15:18:09;17.10;99.90
25024;DHT22;13033;50.936;5.334;2023-05-01T15:20:35;16.80;99.90
25024;DHT22;13033;50.936;5.334;2023-05-01T15:23:01;16.60;99.90
25024;DHT22;13033;50.936;5.334;2023-05-01T15:25:27;16.20;1.00
25024;DHT22;13033;50.936;5.334;2023-05-01T15:27:53;16.40;1.00
25024;DHT22;13033;50.936;5.334;2023-05-01T15:30:19;16.90;1.00
25024;DHT22;13033;50.936;5.334;2023-05-01T15:32:45;17.10;1.00
25024;DHT22;13033;50.936;5.334;2023-05-01T15:35:11;17.40;1.00
25024;DHT22;13033;50.936;5.334;2023-05-01T15:37:37;17.90;99.90
25024;DHT22;13033;50.936;5.334;2023-05-01T15:40:03;18.70;99.90
25024;DHT22;13033;50.936;5.334;2023-05-01T15:42:29;19.60;99.90
25024;DHT22;13033;50.936;5.334;2023-05-01T15:44:55;20.90;9.70
25024;DHT22;13033;50.936;5.334;2023-05-01T15:47:21;22.30;99.90
25024;DHT22;13033;50.936;5.334;2023-05-01T15:49:46;23.10;99.90
25024;DHT22;13033;50.936;5.334;2023-05-01T15:52:13;22.40;99.90
25024;DHT22;13033;50.936;5.334;2023-05-01T15:54:38;22.10;1.00
25024;DHT22;13033;50.936;5.334;2023-05-01T15:57:04;21.60;99.90
25024;DHT22;13033;50.936;5.334;2023-05-01T15:59:31;21.70;99.90
25024;DHT22;13033;50.936;5.334;2023-05-01T16:01:57;22.00;99.90
25024;DHT22;13033;50.936;5.334;2023-05-01T16:04:23;21.90;4.20
25024;DHT22;13033;50.936;5.334;2023-05-01T16:06:49;21.60;99.90
25024;DHT22;13033;50.936;5.334;2023-05-01T16:09:14;21.00;99.90
25024;DHT22;13033;50.936;5.334;2023-05-01T16:11:40;20.60;1.00